sensor_id;sensor_type;location;lat;lon;timestamp;P1;durP1;ratioP1;P2;durP2;ratioP2
22924;SDS011;11628;51.072;3.712;2023-04-25T00:01:14;18.85;;;5.55;;
22924;SDS011;11628;51.072;3.712;2023-04-25T00:03:40;18.05;;;4.88;;
22924;SDS011;11628;51.072;3.712;2023-04-25T00:06:06;23.73;;;5.68;;
22924;SDS011;11628;51.072;3.712;2023-04-25T00:08:32;20.52;;;4.95;;
22924;SDS011;11628;51.072;3.712;2023-04-25T00:10:58;20.15;;;5.90;;
22924;SDS011;11628;51.072;3.712;2023-04-25T00:13:25;21.95;;;5.72;;
22924;SDS011;11628;51.072;3.712;2023-04-25T00:15:51;15.43;;;4.50;;
22924;SDS011;11628;51.072;3.712;2023-04-25T00:18:18;22.00;;;4.90;;
22924;SDS011;11628;51.072;3.712;2023-04-25T00:20:47;17.45;;;5.38;;
22924;SDS011;11628;51.072;3.712;2023-04-25T00:23:13;18.70;;;5.20;;
22924;SDS011;11628;51.072;3.712;2023-04-25T00:25:46;20.65;;;5.22;;
22924;SDS011;11628;51.072;3.712;2023-04-25T00:28:13;19.42;;;5.20;;
22924;SDS011;11628;51.072;3.712;2023-04-25T00:30:39;17.15;;;5.25;;
22924;SDS011;11628;51.072;3.712;2023-04-25T00:33:05;16.90;;;5.00;;
22924;SDS011;11628;51.072;3.712;2023-04-25T00:35:32;16.55;;;4.60;;
22924;SDS011;11628;51.072;3.712;2023-04-25T00:37:58;14.48;;;4.68;;
22924;SDS011;11628;51.072;3.712;2023-04-25T00:40:23;21.50;;;4.85;;
22924;SDS011;11628;51.072;3.712;2023-04-25T00:42:50;18.48;;;4.80;;
22924;SDS011;11628;51.072;3.712;2023-04-25T00:45:17;18.00;;;4.60;;
22924;SDS011;11628;51.072;3.712;2023-04-25T00:47:44;20.02;;;4.63;;
22924;SDS011;11628;51.072;3.712;2023-04-25T00:50:11;19.23;;;4.50;;
22924;SDS011;11628;51.072;3.712;2023-04-25T00:52:41;18.45;;;5.15;;
22924;SDS011;11628;51.072;3.712;2023-04-25T00:55:10;18.60;;;4.55;;
22924;SDS011;11628;51.072;3.712;2023-04-25T00:57:37;24.70;;;4.80;;
22924;SDS011;11628;51.072;3.712;2023-04-25T01:00:03;19.83;;;4.15;;
22924;SDS011;11628;51.072;3.712;2023-04-25T01:02:31;18.55;;;4.20;;
22924;SDS011;11628;51.072;3.712;2023-04-25T01:05:00;18.77;;;4.20;;
22924;SDS011;11628;51.072;3.712;2023-04-25T01:07:27;17.60;;;4.07;;
22924;SDS011;11628;51.072;3.712;2023-04-25T01:09:52;17.17;;;4.88;;
22924;SDS011;11628;51.072;3.712;2023-04-25T01:12:18;21.23;;;5.53;;
22924;SDS011;11628;51.072;3.712;2023-04-25T01:14:44;20.27;;;4.65;;
22924;SDS011;11628;51.072;3.712;2023-04-25T01:17:10;15.80;;;4.05;;
22924;SDS011;11628;51.072;3.712;2023-04-25T01:19:36;15.60;;;4.38;;
22924;SDS011;11628;51.072;3.712;2023-04-25T01:22:02;22.25;;;5.22;;
22924;SDS011;11628;51.072;3.712;2023-04-25T01:24:28;21.95;;;5.93;;
22924;SDS011;11628;51.072;3.712;2023-04-25T01:26:56;20.80;;;4.75;;
22924;SDS011;11628;51.072;3.712;2023-04-25T01:29:24;19.48;;;5.38;;
22924;SDS011;11628;51.072;3.712;2023-04-25T01:31:51;16.45;;;4.38;;
22924;SDS011;11628;51.072;3.712;2023-04-25T01:34:18;14.43;;;4.53;;
22924;SDS011;11628;51.072;3.712;2023-04-25T01:36:43;17.17;;;5.38;;
22924;SDS011;11628;51.072;3.712;2023-04-25T01:39:09;17.25;;;5.43;;
22924;SDS011;11628;51.072;3.712;2023-04-25T01:41:35;15.93;;;4.78;;
22924;SDS011;11628;51.072;3.712;2023-04-25T01:44:01;21.88;;;6.63;;
22924;SDS011;11628;51.072;3.712;2023-04-25T01:46:27;19.23;;;5.00;;
22924;SDS011;11628;51.072;3.712;2023-04-25T01:48:53;22.42;;;5.10;;
22924;SDS011;11628;51.072;3.712;2023-04-25T01:51:19;18.67;;;5.82;;
22924;SDS011;11628;51.072;3.712;2023-04-25T01:53:45;21.75;;;5.47;;
22924;SDS011;11628;51.072;3.712;2023-04-25T01:56:11;17.48;;;5.38;;
22924;SDS011;11628;51.072;3.712;2023-04-25T01:58:37;20.20;;;5.43;;
22924;SDS011;11628;51.072;3.712;2023-04-25T02:01:02;18.08;;;4.82;;
22924;SDS011;11628;51.072;3.712;2023-04-25T02:03:29;16.67;;;5.07;;
22924;SDS011;11628;51.072;3.712;2023-04-25T02:05:55;17.90;;;5.00;;
22924;SDS011;11628;51.072;3.712;2023-04-25T02:08:22;21.25;;;6.35;;
22924;SDS011;11628;51.072;3.712;2023-04-25T02:10:47;19.73;;;5.20;;
22924;SDS011;11628;51.072;3.712;2023-04-25T02:13:13;20.58;;;4.90;;
22924;SDS011;11628;51.072;3.712;2023-04-25T02:15:39;21.73;;;5.95;;
22924;SDS011;11628;51.072;3.712;2023-04-25T02:18:06;18.50;;;5.78;;
22924;SDS011;11628;51.072;3.712;2023-04-25T02:20:32;16.00;;;4.68;;
22924;SDS011;11628;51.072;3.712;2023-04-25T02:22:58;23.98;;;5.35;;
22924;SDS011;11628;51.072;3.712;2023-04-25T02:25:23;17.02;;;4.80;;
22924;SDS011;11628;51.072;3.712;2023-04-25T02:27:49;20.35;;;5.28;;
22924;SDS011;11628;51.072;3.712;2023-04-25T02:30:16;23.20;;;4.88;;
22924;SDS011;11628;51.072;3.712;2023-04-25T02:32:42;16.80;;;4.78;;
22924;SDS011;11628;51.072;3.712;2023-04-25T02:35:08;18.17;;;4.45;;
22924;SDS011;11628;51.072;3.712;2023-04-25T02:37:34;20.52;;;5.82;;
22924;SDS011;11628;51.072;3.712;2023-04-25T02:40:01;22.52;;;4.57;;
22924;SDS011;11628;51.072;3.712;2023-04-25T02:42:28;16.98;;;5.00;;
22924;SDS011;11628;51.072;3.712;2023-04-25T02:44:53;16.52;;;4.82;;
22924;SDS011;11628;51.072;3.712;2023-04-25T02:47:19;22.90;;;5.05;;
22924;SDS011;11628;51.072;3.712;2023-04-25T02:49:45;21.58;;;4.18;;
22924;SDS011;11628;51.072;3.712;2023-04-25T02:52:11;17.10;;;4.53;;
22924;SDS011;11628;51.072;3.712;2023-04-25T02:54:37;20.52;;;5.15;;
22924;SDS011;11628;51.072;3.712;2023-04-25T02:57:04;16.98;;;5.00;;
22924;SDS011;11628;51.072;3.712;2023-04-25T02:59:29;14.98;;;3.92;;
22924;SDS011;11628;51.072;3.712;2023-04-25T03:01:55;16.13;;;4.28;;
22924;SDS011;11628;51.072;3.712;2023-04-25T03:04:21;13.13;;;4.22;;
22924;SDS011;11628;51.072;3.712;2023-04-25T03:06:48;17.98;;;3.90;;
22924;SDS011;11628;51.072;3.712;2023-04-25T03:09:15;13.82;;;4.28;;
22924;SDS011;11628;51.072;3.712;2023-04-25T03:11:40;12.27;;;3.80;;
22924;SDS011;11628;51.072;3.712;2023-04-25T03:14:06;19.90;;;4.07;;
22924;SDS011;11628;51.072;3.712;2023-04-25T03:16:32;15.00;;;3.83;;
22924;SDS011;11628;51.072;3.712;2023-04-25T03:18:58;16.42;;;4.32;;
22924;SDS011;11628;51.072;3.712;2023-04-25T03:21:24;12.98;;;3.60;;
22924;SDS011;11628;51.072;3.712;2023-04-25T03:23:51;13.90;;;3.85;;
22924;SDS011;11628;51.072;3.712;2023-04-25T03:26:17;16.42;;;4.50;;
22924;SDS011;11628;51.072;3.712;2023-04-25T03:28:43;15.20;;;4.35;;
22924;SDS011;11628;51.072;3.712;2023-04-25T03:31:08;17.42;;;3.90;;
22924;SDS011;11628;51.072;3.712;2023-04-25T03:33:34;16.92;;;4.13;;
22924;SDS011;11628;51.072;3.712;2023-04-25T03:36:00;14.50;;;3.67;;
22924;SDS011;11628;51.072;3.712;2023-04-25T03:38:25;12.68;;;3.33;;
22924;SDS011;11628;51.072;3.712;2023-04-25T03:40:51;13.80;;;3.80;;
22924;SDS011;11628;51.072;3.712;2023-04-25T03:43:17;14.65;;;4.13;;
22924;SDS011;11628;51.072;3.712;2023-04-25T03:45:43;12.73;;;3.58;;
22924;SDS011;11628;51.072;3.712;2023-04-25T03:48:09;13.40;;;3.70;;
22924;SDS011;11628;51.072;3.712;2023-04-25T03:50:35;16.40;;;3.20;;
22924;SDS011;11628;51.072;3.712;2023-04-25T03:53:00;9.80;;;3.17;;
22924;SDS011;11628;51.072;3.712;2023-04-25T03:55:26;12.05;;;3.60;;
22924;SDS011;11628;51.072;3.712;2023-04-25T03:57:52;17.08;;;3.20;;
22924;SDS011;11628;51.072;3.712;2023-04-25T04:00:17;18.92;;;4.28;;
22924;SDS011;11628;51.072;3.712;2023-04-25T04:02:43;13.30;;;4.47;;
22924;SDS011;11628;51.072;3.712;2023-04-25T04:05:09;15.23;;;4.03;;
22924;SDS011;11628;51.072;3.712;2023-04-25T04:07:34;14.18;;;4.00;;
22924;SDS011;11628;51.072;3.712;2023-04-25T04:10:05;14.77;;;3.88;;
22924;SDS011;11628;51.072;3.712;2023-04-25T04:12:32;12.68;;;3.88;;
22924;SDS011;11628;51.072;3.712;2023-04-25T04:14:58;11.35;;;3.03;;
22924;SDS011;11628;51.072;3.712;2023-04-25T04:17:24;13.95;;;3.45;;
22924;SDS011;11628;51.072;3.712;2023-04-25T04:19:50;10.85;;;3.10;;
22924;SDS011;11628;51.072;3.712;2023-04-25T04:22:15;12.02;;;2.85;;
22924;SDS011;11628;51.072;3.712;2023-04-25T04:24:41;14.70;;;3.65;;
22924;SDS011;11628;51.072;3.712;2023-04-25T04:27:11;12.48;;;3.53;;
22924;SDS011;11628;51.072;3.712;2023-04-25T04:29:37;12.82;;;3.05;;
22924;SDS011;11628;51.072;3.712;2023-04-25T04:32:03;11.63;;;3.53;;
22924;SDS011;11628;51.072;3.712;2023-04-25T04:34:30;11.80;;;3.70;;
22924;SDS011;11628;51.072;3.712;2023-04-25T04:36:56;11.48;;;4.25;;
22924;SDS011;11628;51.072;3.712;2023-04-25T04:39:22;16.63;;;3.60;;
22924;SDS011;11628;51.072;3.712;2023-04-25T04:41:47;13.95;;;3.70;;
22924;SDS011;11628;51.072;3.712;2023-04-25T04:44:13;11.82;;;3.63;;
22924;SDS011;11628;51.072;3.712;2023-04-25T04:46:39;13.32;;;3.53;;
22924;SDS011;11628;51.072;3.712;2023-04-25T04:49:10;14.70;;;4.22;;
22924;SDS011;11628;51.072;3.712;2023-04-25T04:51:37;13.35;;;4.60;;
22924;SDS011;11628;51.072;3.712;2023-04-25T04:54:03;14.13;;;4.68;;
22924;SDS011;11628;51.072;3.712;2023-04-25T04:56:29;11.43;;;4.50;;
22924;SDS011;11628;51.072;3.712;2023-04-25T04:58:56;12.27;;;3.97;;
22924;SDS011;11628;51.072;3.712;2023-04-25T05:01:22;21.50;;;4.63;;
22924;SDS011;11628;51.072;3.712;2023-04-25T05:03:48;21.10;;;7.50;;
22924;SDS011;11628;51.072;3.712;2023-04-25T05:06:15;14.07;;;4.55;;
22924;SDS011;11628;51.072;3.712;2023-04-25T05:08:42;18.58;;;4.53;;
22924;SDS011;11628;51.072;3.712;2023-04-25T05:11:07;20.75;;;4.68;;
22924;SDS011;11628;51.072;3.712;2023-04-25T05:13:33;12.95;;;3.92;;
22924;SDS011;11628;51.072;3.712;2023-04-25T05:15:59;19.58;;;4.00;;
22924;SDS011;11628;51.072;3.712;2023-04-25T05:18:25;14.70;;;3.58;;
22924;SDS011;11628;51.072;3.712;2023-04-25T05:20:51;14.82;;;4.20;;
22924;SDS011;11628;51.072;3.712;2023-04-25T05:23:16;14.95;;;4.30;;
22924;SDS011;11628;51.072;3.712;2023-04-25T05:25:42;13.18;;;3.78;;
22924;SDS011;11628;51.072;3.712;2023-04-25T05:28:08;19.23;;;5.65;;
22924;SDS011;11628;51.072;3.712;2023-04-25T05:30:34;11.75;;;4.15;;
22924;SDS011;11628;51.072;3.712;2023-04-25T05:32:59;13.73;;;4.25;;
22924;SDS011;11628;51.072;3.712;2023-04-25T05:35:25;18.95;;;6.90;;
22924;SDS011;11628;51.072;3.712;2023-04-25T05:37:51;15.45;;;4.60;;
22924;SDS011;11628;51.072;3.712;2023-04-25T05:40:17;16.45;;;3.42;;
22924;SDS011;11628;51.072;3.712;2023-04-25T05:42:42;16.20;;;4.63;;
22924;SDS011;11628;51.072;3.712;2023-04-25T05:45:08;15.00;;;3.20;;
22924;SDS011;11628;51.072;3.712;2023-04-25T05:47:34;11.52;;;3.63;;
22924;SDS011;11628;51.072;3.712;2023-04-25T05:50:00;15.23;;;4.30;;
22924;SDS011;11628;51.072;3.712;2023-04-25T05:52:26;16.38;;;4.50;;
22924;SDS011;11628;51.072;3.712;2023-04-25T05:54:51;13.57;;;3.47;;
22924;SDS011;11628;51.072;3.712;2023-04-25T05:57:24;14.32;;;4.30;;
22924;SDS011;11628;51.072;3.712;2023-04-25T05:59:51;17.98;;;3.70;;
22924;SDS011;11628;51.072;3.712;2023-04-25T06:02:18;12.77;;;3.28;;
22924;SDS011;11628;51.072;3.712;2023-04-25T06:04:45;15.27;;;3.90;;
22924;SDS011;11628;51.072;3.712;2023-04-25T06:07:11;17.23;;;4.25;;
22924;SDS011;11628;51.072;3.712;2023-04-25T06:09:38;13.93;;;5.47;;
22924;SDS011;11628;51.072;3.712;2023-04-25T06:12:05;11.48;;;2.83;;
22924;SDS011;11628;51.072;3.712;2023-04-25T06:14:31;12.40;;;3.17;;
22924;SDS011;11628;51.072;3.712;2023-04-25T06:16:58;15.45;;;3.33;;
22924;SDS011;11628;51.072;3.712;2023-04-25T06:19:24;19.02;;;3.15;;
22924;SDS011;11628;51.072;3.712;2023-04-25T06:21:49;15.73;;;2.83;;
22924;SDS011;11628;51.072;3.712;2023-04-25T06:24:15;15.27;;;3.05;;
22924;SDS011;11628;51.072;3.712;2023-04-25T06:26:41;10.00;;;2.20;;
22924;SDS011;11628;51.072;3.712;2023-04-25T06:29:06;15.52;;;2.30;;
22924;SDS011;11628;51.072;3.712;2023-04-25T06:31:32;10.65;;;2.20;;
22924;SDS011;11628;51.072;3.712;2023-04-25T06:33:58;9.00;;;3.25;;
22924;SDS011;11628;51.072;3.712;2023-04-25T06:36:24;14.27;;;3.65;;
22924;SDS011;11628;51.072;3.712;2023-04-25T06:38:51;17.33;;;2.60;;
22924;SDS011;11628;51.072;3.712;2023-04-25T06:41:20;8.25;;;2.10;;
22924;SDS011;11628;51.072;3.712;2023-04-25T06:43:46;16.73;;;2.80;;
22924;SDS011;11628;51.072;3.712;2023-04-25T06:46:11;14.90;;;3.38;;
22924;SDS011;11628;51.072;3.712;2023-04-25T06:48:37;10.05;;;1.90;;
22924;SDS011;11628;51.072;3.712;2023-04-25T06:51:03;8.30;;;2.38;;
22924;SDS011;11628;51.072;3.712;2023-04-25T06:53:29;10.85;;;2.33;;
22924;SDS011;11628;51.072;3.712;2023-04-25T06:55:55;9.68;;;2.00;;
22924;SDS011;11628;51.072;3.712;2023-04-25T06:58:20;9.57;;;1.90;;
22924;SDS011;11628;51.072;3.712;2023-04-25T07:00:46;7.88;;;2.10;;
22924;SDS011;11628;51.072;3.712;2023-04-25T07:03:12;12.88;;;2.20;;
22924;SDS011;11628;51.072;3.712;2023-04-25T07:05:37;10.73;;;2.58;;
22924;SDS011;11628;51.072;3.712;2023-04-25T07:08:03;10.80;;;1.80;;
22924;SDS011;11628;51.072;3.712;2023-04-25T07:10:29;11.15;;;1.80;;
22924;SDS011;11628;51.072;3.712;2023-04-25T07:12:55;11.63;;;2.08;;
22924;SDS011;11628;51.072;3.712;2023-04-25T07:15:20;6.55;;;1.73;;
22924;SDS011;11628;51.072;3.712;2023-04-25T07:17:46;9.05;;;2.00;;
22924;SDS011;11628;51.072;3.712;2023-04-25T07:20:12;7.78;;;2.20;;
22924;SDS011;11628;51.072;3.712;2023-04-25T07:22:38;12.23;;;2.78;;
22924;SDS011;11628;51.072;3.712;2023-04-25T07:25:04;8.45;;;2.38;;
22924;SDS011;11628;51.072;3.712;2023-04-25T07:27:30;8.77;;;1.60;;
22924;SDS011;11628;51.072;3.712;2023-04-25T07:29:56;8.80;;;2.08;;
22924;SDS011;11628;51.072;3.712;2023-04-25T07:32:22;8.82;;;1.50;;
22924;SDS011;11628;51.072;3.712;2023-04-25T07:34:48;8.10;;;1.70;;
22924;SDS011;11628;51.072;3.712;2023-04-25T07:37:14;10.07;;;2.97;;
22924;SDS011;11628;51.072;3.712;2023-04-25T07:39:40;11.60;;;2.60;;
22924;SDS011;11628;51.072;3.712;2023-04-25T07:42:06;7.53;;;2.30;;
22924;SDS011;11628;51.072;3.712;2023-04-25T07:44:35;8.43;;;1.20;;
22924;SDS011;11628;51.072;3.712;2023-04-25T07:47:08;7.20;;;1.20;;
22924;SDS011;11628;51.072;3.712;2023-04-25T07:49:37;4.90;;;1.25;;
22924;SDS011;11628;51.072;3.712;2023-04-25T07:52:03;8.35;;;1.35;;
22924;SDS011;11628;51.072;3.712;2023-04-25T07:54:31;8.32;;;1.73;;
22924;SDS011;11628;51.072;3.712;2023-04-25T07:56:57;11.40;;;2.38;;
22924;SDS011;11628;51.072;3.712;2023-04-25T07:59:23;9.95;;;1.67;;
22924;SDS011;11628;51.072;3.712;2023-04-25T08:01:49;6.78;;;1.55;;
22924;SDS011;11628;51.072;3.712;2023-04-25T08:04:16;10.27;;;2.03;;
22924;SDS011;11628;51.072;3.712;2023-04-25T08:06:42;10.80;;;2.20;;
22924;SDS011;11628;51.072;3.712;2023-04-25T08:09:08;7.55;;;1.67;;
22924;SDS011;11628;51.072;3.712;2023-04-25T08:11:34;8.88;;;1.92;;
22924;SDS011;11628;51.072;3.712;2023-04-25T08:14:02;8.00;;;1.73;;
22924;SDS011;11628;51.072;3.712;2023-04-25T08:16:28;8.45;;;1.20;;
22924;SDS011;11628;51.072;3.712;2023-04-25T08:18:54;8.48;;;1.52;;
22924;SDS011;11628;51.072;3.712;2023-04-25T08:21:19;4.75;;;1.25;;
22924;SDS011;11628;51.072;3.712;2023-04-25T08:23:46;6.50;;;1.60;;
22924;SDS011;11628;51.072;3.712;2023-04-25T08:26:11;4.45;;;1.30;;
22924;SDS011;11628;51.072;3.712;2023-04-25T08:28:37;6.88;;;1.20;;
22924;SDS011;11628;51.072;3.712;2023-04-25T08:31:03;4.70;;;1.15;;
22924;SDS011;11628;51.072;3.712;2023-04-25T08:33:29;7.80;;;1.48;;
22924;SDS011;11628;51.072;3.712;2023-04-25T08:35:55;5.50;;;1.10;;
22924;SDS011;11628;51.072;3.712;2023-04-25T08:38:21;7.22;;;1.05;;
22924;SDS011;11628;51.072;3.712;2023-04-25T08:40:49;8.20;;;1.42;;
22924;SDS011;11628;51.072;3.712;2023-04-25T08:43:17;4.45;;;1.27;;
22924;SDS011;11628;51.072;3.712;2023-04-25T08:45:43;5.78;;;1.10;;
22924;SDS011;11628;51.072;3.712;2023-04-25T08:48:12;4.68;;;0.90;;
22924;SDS011;11628;51.072;3.712;2023-04-25T08:50:39;5.43;;;0.95;;
22924;SDS011;11628;51.072;3.712;2023-04-25T08:53:14;5.50;;;1.20;;
22924;SDS011;11628;51.072;3.712;2023-04-25T08:55:44;4.40;;;0.90;;
22924;SDS011;11628;51.072;3.712;2023-04-25T08:58:11;5.13;;;1.42;;
22924;SDS011;11628;51.072;3.712;2023-04-25T09:00:37;6.65;;;1.00;;
22924;SDS011;11628;51.072;3.712;2023-04-25T09:03:03;5.85;;;1.27;;
22924;SDS011;11628;51.072;3.712;2023-04-25T09:05:30;8.25;;;1.85;;
22924;SDS011;11628;51.072;3.712;2023-04-25T09:07:57;4.20;;;1.10;;
22924;SDS011;11628;51.072;3.712;2023-04-25T09:10:23;7.63;;;1.85;;
22924;SDS011;11628;51.072;3.712;2023-04-25T09:13:02;14.35;;;1.40;;
22924;SDS011;11628;51.072;3.712;2023-04-25T09:15:32;10.10;;;1.50;;
22924;SDS011;11628;51.072;3.712;2023-04-25T09:18:01;7.47;;;1.52;;
22924;SDS011;11628;51.072;3.712;2023-04-25T09:20:26;4.50;;;1.30;;
22924;SDS011;11628;51.072;3.712;2023-04-25T09:23:03;5.25;;;1.35;;
22924;SDS011;11628;51.072;3.712;2023-04-25T09:25:33;4.30;;;1.15;;
22924;SDS011;11628;51.072;3.712;2023-04-25T09:28:05;6.35;;;1.13;;
22924;SDS011;11628;51.072;3.712;2023-04-25T09:30:32;7.05;;;1.35;;
22924;SDS011;11628;51.072;3.712;2023-04-25T09:33:11;4.20;;;1.45;;
22924;SDS011;11628;51.072;3.712;2023-04-25T09:35:38;7.43;;;1.20;;
22924;SDS011;11628;51.072;3.712;2023-04-25T09:38:11;3.40;;;0.70;;
22924;SDS011;11628;51.072;3.712;2023-04-25T09:40:45;2.72;;;0.85;;
22924;SDS011;11628;51.072;3.712;2023-04-25T09:43:18;3.83;;;1.27;;
22924;SDS011;11628;51.072;3.712;2023-04-25T09:45:48;6.15;;;1.27;;
22924;SDS011;11628;51.072;3.712;2023-04-25T09:48:17;4.47;;;0.82;;
22924;SDS011;11628;51.072;3.712;2023-04-25T09:50:45;2.92;;;0.95;;
22924;SDS011;11628;51.072;3.712;2023-04-25T09:53:28;4.13;;;0.85;;
22924;SDS011;11628;51.072;3.712;2023-04-25T09:55:54;6.68;;;1.10;;
22924;SDS011;11628;51.072;3.712;2023-04-25T09:58:21;6.60;;;1.30;;
22924;SDS011;11628;51.072;3.712;2023-04-25T10:00:50;4.65;;;1.50;;
22924;SDS011;11628;51.072;3.712;2023-04-25T10:03:17;5.57;;;1.23;;
22924;SDS011;11628;51.072;3.712;2023-04-25T10:05:43;4.45;;;1.10;;
22924;SDS011;11628;51.072;3.712;2023-04-25T10:08:11;10.05;;;4.60;;
22924;SDS011;11628;51.072;3.712;2023-04-25T10:10:38;5.32;;;1.27;;
22924;SDS011;11628;51.072;3.712;2023-04-25T10:13:05;3.17;;;1.05;;
22924;SDS011;11628;51.072;3.712;2023-04-25T10:15:35;6.97;;;3.45;;
22924;SDS011;11628;51.072;3.712;2023-04-25T10:18:03;4.55;;;1.35;;
22924;SDS011;11628;51.072;3.712;2023-04-25T10:20:31;8.15;;;3.95;;
22924;SDS011;11628;51.072;3.712;2023-04-25T10:22:58;7.68;;;2.38;;
22924;SDS011;11628;51.072;3.712;2023-04-25T10:25:34;7.53;;;1.27;;
22924;SDS011;11628;51.072;3.712;2023-04-25T10:28:00;4.53;;;1.15;;
22924;SDS011;11628;51.072;3.712;2023-04-25T10:30:28;6.55;;;1.40;;
22924;SDS011;11628;51.072;3.712;2023-04-25T10:32:55;5.75;;;1.30;;
22924;SDS011;11628;51.072;3.712;2023-04-25T10:35:28;5.72;;;1.48;;
22924;SDS011;11628;51.072;3.712;2023-04-25T10:37:58;4.20;;;1.15;;
22924;SDS011;11628;51.072;3.712;2023-04-25T10:40:29;3.60;;;1.00;;
22924;SDS011;11628;51.072;3.712;2023-04-25T10:42:56;4.22;;;1.17;;
22924;SDS011;11628;51.072;3.712;2023-04-25T10:46:13;4.50;;;1.08;;
22924;SDS011;11628;51.072;3.712;2023-04-25T10:48:53;6.80;;;1.23;;
22924;SDS011;11628;51.072;3.712;2023-04-25T10:51:24;5.05;;;1.55;;
22924;SDS011;11628;51.072;3.712;2023-04-25T10:56:20;4.90;;;1.00;;
22924;SDS011;11628;51.072;3.712;2023-04-25T10:59:09;4.43;;;1.05;;
22924;SDS011;11628;51.072;3.712;2023-04-25T11:01:37;4.15;;;1.02;;
22924;SDS011;11628;51.072;3.712;2023-04-25T11:04:20;6.57;;;1.20;;
22924;SDS011;11628;51.072;3.712;2023-04-25T11:09:39;8.60;;;2.55;;
22924;SDS011;11628;51.072;3.712;2023-04-25T11:12:09;4.35;;;1.33;;
22924;SDS011;11628;51.072;3.712;2023-04-25T11:14:36;7.50;;;1.17;;
22924;SDS011;11628;51.072;3.712;2023-04-25T11:17:02;2.72;;;0.88;;
22924;SDS011;11628;51.072;3.712;2023-04-25T11:19:28;4.95;;;1.20;;
22924;SDS011;11628;51.072;3.712;2023-04-25T11:21:55;3.55;;;1.00;;
22924;SDS011;11628;51.072;3.712;2023-04-25T11:24:31;3.05;;;0.90;;
22924;SDS011;11628;51.072;3.712;2023-04-25T11:27:00;1.73;;;0.60;;
22924;SDS011;11628;51.072;3.712;2023-04-25T11:29:28;5.88;;;1.10;;
22924;SDS011;11628;51.072;3.712;2023-04-25T11:31:55;3.90;;;0.82;;
22924;SDS011;11628;51.072;3.712;2023-04-25T11:34:25;4.78;;;1.10;;
22924;SDS011;11628;51.072;3.712;2023-04-25T11:36:51;4.80;;;1.30;;
22924;SDS011;11628;51.072;3.712;2023-04-25T11:39:21;5.43;;;1.10;;
22924;SDS011;11628;51.072;3.712;2023-04-25T11:41:47;5.80;;;1.05;;
22924;SDS011;11628;51.072;3.712;2023-04-25T11:44:15;5.88;;;1.08;;
22924;SDS011;11628;51.072;3.712;2023-04-25T11:46:41;4.10;;;1.10;;
22924;SDS011;11628;51.072;3.712;2023-04-25T11:49:08;4.85;;;1.23;;
22924;SDS011;11628;51.072;3.712;2023-04-25T11:51:38;4.13;;;1.17;;
22924;SDS011;11628;51.072;3.712;2023-04-25T11:54:08;6.95;;;3.65;;
22924;SDS011;11628;51.072;3.712;2023-04-25T11:56:34;5.78;;;1.15;;
22924;SDS011;11628;51.072;3.712;2023-04-25T11:59:00;4.30;;;1.25;;
22924;SDS011;11628;51.072;3.712;2023-04-25T12:01:35;6.05;;;1.42;;
22924;SDS011;11628;51.072;3.712;2023-04-25T12:04:12;6.60;;;1.13;;
22924;SDS011;11628;51.072;3.712;2023-04-25T12:06:46;4.20;;;0.93;;
22924;SDS011;11628;51.072;3.712;2023-04-25T12:09:13;5.45;;;1.20;;
22924;SDS011;11628;51.072;3.712;2023-04-25T12:11:52;7.00;;;1.50;;
22924;SDS011;11628;51.072;3.712;2023-04-25T12:14:26;3.75;;;1.10;;
22924;SDS011;11628;51.072;3.712;2023-04-25T12:17:00;5.90;;;2.17;;
22924;SDS011;11628;51.072;3.712;2023-04-25T12:19:34;4.90;;;1.30;;
22924;SDS011;11628;51.072;3.712;2023-04-25T12:22:02;6.32;;;1.33;;
22924;SDS011;11628;51.072;3.712;2023-04-25T12:24:28;3.90;;;1.40;;
22924;SDS011;11628;51.072;3.712;2023-04-25T12:27:01;4.57;;;1.30;;
22924;SDS011;11628;51.072;3.712;2023-04-25T12:29:29;3.28;;;1.10;;
22924;SDS011;11628;51.072;3.712;2023-04-25T12:31:58;5.20;;;1.10;;
22924;SDS011;11628;51.072;3.712;2023-04-25T12:34:26;6.05;;;1.50;;
22924;SDS011;11628;51.072;3.712;2023-04-25T12:36:52;5.35;;;1.67;;
22924;SDS011;11628;51.072;3.712;2023-04-25T12:39:23;3.90;;;1.20;;
22924;SDS011;11628;51.072;3.712;2023-04-25T12:41:52;4.88;;;2.78;;
22924;SDS011;11628;51.072;3.712;2023-04-25T12:44:19;7.72;;;3.10;;
22924;SDS011;11628;51.072;3.712;2023-04-25T12:46:46;5.47;;;1.48;;
22924;SDS011;11628;51.072;3.712;2023-04-25T12:49:13;6.70;;;1.55;;
22924;SDS011;11628;51.072;3.712;2023-04-25T12:51:39;5.20;;;1.15;;
22924;SDS011;11628;51.072;3.712;2023-04-25T12:54:06;4.88;;;1.30;;
22924;SDS011;11628;51.072;3.712;2023-04-25T12:56:33;9.85;;;1.33;;
22924;SDS011;11628;51.072;3.712;2023-04-25T12:58:59;7.60;;;1.65;;
22924;SDS011;11628;51.072;3.712;2023-04-25T13:01:25;6.72;;;2.00;;
22924;SDS011;11628;51.072;3.712;2023-04-25T13:03:51;6.05;;;1.27;;
22924;SDS011;11628;51.072;3.712;2023-04-25T13:06:18;4.82;;;1.40;;
22924;SDS011;11628;51.072;3.712;2023-04-25T13:08:44;6.60;;;1.40;;
22924;SDS011;11628;51.072;3.712;2023-04-25T13:11:11;4.82;;;1.17;;
22924;SDS011;11628;51.072;3.712;2023-04-25T13:13:37;7.65;;;1.27;;
22924;SDS011;11628;51.072;3.712;2023-04-25T13:16:06;4.95;;;1.13;;
22924;SDS011;11628;51.072;3.712;2023-04-25T13:18:32;8.60;;;1.40;;
22924;SDS011;11628;51.072;3.712;2023-04-25T13:21:01;6.53;;;1.65;;
22924;SDS011;11628;51.072;3.712;2023-04-25T13:23:28;5.22;;;1.50;;
22924;SDS011;11628;51.072;3.712;2023-04-25T13:25:55;6.68;;;1.33;;
22924;SDS011;11628;51.072;3.712;2023-04-25T13:28:23;28.27;;;3.30;;
22924;SDS011;11628;51.072;3.712;2023-04-25T13:30:49;5.32;;;1.75;;
22924;SDS011;11628;51.072;3.712;2023-04-25T13:33:15;5.75;;;1.30;;
22924;SDS011;11628;51.072;3.712;2023-04-25T13:35:41;7.28;;;1.40;;
22924;SDS011;11628;51.072;3.712;2023-04-25T13:38:07;4.88;;;1.17;;
22924;SDS011;11628;51.072;3.712;2023-04-25T13:40:34;6.00;;;2.92;;
22924;SDS011;11628;51.072;3.712;2023-04-25T13:43:01;5.93;;;1.85;;
22924;SDS011;11628;51.072;3.712;2023-04-25T13:45:27;6.18;;;1.70;;
22924;SDS011;11628;51.072;3.712;2023-04-25T13:47:52;7.97;;;2.22;;
22924;SDS011;11628;51.072;3.712;2023-04-25T13:50:18;8.30;;;2.85;;
22924;SDS011;11628;51.072;3.712;2023-04-25T13:52:44;5.85;;;2.10;;
22924;SDS011;11628;51.072;3.712;2023-04-25T13:55:10;4.97;;;2.10;;
22924;SDS011;11628;51.072;3.712;2023-04-25T13:57:36;5.05;;;1.23;;
22924;SDS011;11628;51.072;3.712;2023-04-25T14:00:03;6.05;;;1.20;;
22924;SDS011;11628;51.072;3.712;2023-04-25T14:02:33;4.30;;;1.40;;
22924;SDS011;11628;51.072;3.712;2023-04-25T14:05:03;3.53;;;0.93;;
22924;SDS011;11628;51.072;3.712;2023-04-25T14:07:30;5.13;;;1.35;;
22924;SDS011;11628;51.072;3.712;2023-04-25T14:09:56;5.63;;;1.42;;
22924;SDS011;11628;51.072;3.712;2023-04-25T14:12:22;4.45;;;1.00;;
22924;SDS011;11628;51.072;3.712;2023-04-25T14:14:48;5.65;;;1.23;;
22924;SDS011;11628;51.072;3.712;2023-04-25T14:17:14;3.28;;;1.15;;
22924;SDS011;11628;51.072;3.712;2023-04-25T14:19:40;4.97;;;0.95;;
22924;SDS011;11628;51.072;3.712;2023-04-25T14:22:08;4.82;;;1.42;;
22924;SDS011;11628;51.072;3.712;2023-04-25T14:24:34;5.13;;;1.42;;
22924;SDS011;11628;51.072;3.712;2023-04-25T14:27:00;4.72;;;1.05;;
22924;SDS011;11628;51.072;3.712;2023-04-25T14:29:26;3.33;;;1.10;;
22924;SDS011;11628;51.072;3.712;2023-04-25T14:31:51;6.25;;;1.20;;
22924;SDS011;11628;51.072;3.712;2023-04-25T14:34:18;3.08;;;1.10;;
22924;SDS011;11628;51.072;3.712;2023-04-25T14:36:44;4.43;;;1.20;;
22924;SDS011;11628;51.072;3.712;2023-04-25T14:39:10;3.38;;;0.90;;
22924;SDS011;11628;51.072;3.712;2023-04-25T14:41:37;4.25;;;1.08;;
22924;SDS011;11628;51.072;3.712;2023-04-25T14:44:03;4.65;;;1.25;;
22924;SDS011;11628;51.072;3.712;2023-04-25T14:46:28;7.63;;;1.45;;